Time;durP1;ratioP1;P1;durP2;ratioP2;P2;SDS_P1;SDS_P2;PMS_P1;PMS_P2;Temp;Humidity;BMP_temperature;BMP_pressure;BME280_temperature;BME280_humidity;BME280_pressure;Samples;Min_cycle;Max_cycle;Signal;HPM_P1;HPM_P2
2024/01/20 00:02:16;;;;;;;11.80;2.88;;;1.20;99.90;;;;;;5009494;28;20077;-68
2024/01/20 00:04:44;;;;;;;11.13;2.92;;;1.30;99.90;;;;;;5003700;28;20049;-68
2024/01/20 00:07:11;;;;;;;8.50;3.45;;;1.30;99.90;;;;;;5004283;28;20045;-68
2024/01/20 00:09:38;;;;;;;8.15;4.05;;;1.30;99.90;;;;;;5006084;28;20537;-68
2024/01/20 00:12:16;;;;;;;9.35;2.50;;;1.40;99.90;;;;;;4999983;28;20075;-68
2024/01/20 00:14:43;;;;;;;8.57;2.42;;;1.30;99.90;;;;;;5003943;28;20705;-67
2024/01/20 00:17:10;;;;;;;6.38;2.63;;;1.30;99.90;;;;;;5013297;28;20567;-67
2024/01/20 00:19:51;;;;;;;4.32;2.08;;;1.30;99.90;;;;;;5004414;28;20041;-67
2024/01/20 00:22:21;;;;;;;7.18;2.97;;;1.40;99.90;;;;;;5002181;28;20046;-69
2024/01/20 00:24:49;;;;;;;8.73;2.70;;;1.40;99.90;;;;;;5004238;28;20046;-69
2024/01/20 00:27:16;;;;;;;5.38;2.90;;;1.50;99.90;;;;;;5014828;28;20042;-68
2024/01/20 00:29:45;;;;;;;8.00;2.95;;;1.40;99.90;;;;;;5005267;28;20355;-68
2024/01/20 00:32:12;;;;;;;14.48;4.72;;;1.40;99.90;;;;;;5002436;28;20057;-68
2024/01/20 00:34:39;;;;;;;12.80;5.28;;;1.40;99.90;;;;;;5006871;28;20277;-69
2024/01/20 00:37:25;;;;;;;10.45;4.85;;;1.40;99.90;;;;;;5000811;28;20053;-67
2024/01/20 00:39:52;;;;;;;18.38;6.38;;;1.40;99.90;;;;;;5002685;28;20157;-68
2024/01/20 00:42:19;;;;;;;11.75;4.05;;;1.40;99.90;;;;;;4997455;28;20054;-69
2024/01/20 00:44:46;;;;;;;13.18;3.70;;;1.40;99.90;;;;;;5001584;28;20070;-68
2024/01/20 00:47:12;;;;;;;8.05;3.00;;;1.40;99.90;;;;;;5004012;28;20050;-69
2024/01/20 00:49:39;;;;;;;10.93;2.92;;;1.40;99.90;;;;;;4998099;28;20057;-68
2024/01/20 00:52:07;;;;;;;11.85;3.90;;;1.30;99.90;;;;;;5000388;28;20429;-67
2024/01/20 00:54:33;;;;;;;10.98;3.78;;;1.30;99.90;;;;;;5007069;28;20053;-68
2024/01/20 00:57:00;;;;;;;6.00;2.28;;;1.30;99.90;;;;;;5006926;28;20444;-67
2024/01/20 00:59:27;;;;;;;6.20;2.50;;;1.20;99.90;;;;;;4993057;28;20046;-68
2024/01/20 01:01:54;;;;;;;8.65;2.55;;;1.20;99.90;;;;;;4999995;28;20050;-68
2024/01/20 01:04:21;;;;;;;7.45;2.67;;;1.10;99.90;;;;;;5008261;28;20050;-68
2024/01/20 01:06:48;;;;;;;6.47;2.90;;;1.10;99.90;;;;;;5016112;28;20089;-68
2024/01/20 01:09:15;;;;;;;5.72;2.58;;;1.30;99.90;;;;;;4999270;28;20521;-68
2024/01/20 01:11:42;;;;;;;4.35;2.20;;;1.10;99.90;;;;;;5002671;28;20050;-68
2024/01/20 01:14:09;;;;;;;7.25;2.95;;;1.10;99.90;;;;;;4997861;28;20069;-68
2024/01/20 01:16:36;;;;;;;5.20;2.42;;;1.20;99.90;;;;;;4997337;28;20145;-68
2024/01/20 01:19:03;;;;;;;7.72;3.53;;;1.20;99.90;;;;;;5001912;28;20100;-67
2024/01/20 01:21:30;;;;;;;5.30;2.63;;;1.20;99.90;;;;;;5002774;28;20058;-68
2024/01/20 01:23:57;;;;;;;6.00;2.47;;;1.30;99.90;;;;;;4999824;28;20062;-68
2024/01/20 01:26:24;;;;;;;10.07;2.83;;;1.20;99.90;;;;;;5006144;28;20149;-69
2024/01/20 01:28:54;;;;;;;5.90;2.53;;;1.20;99.90;;;;;;5001770;28;20049;-67
2024/01/20 01:31:21;;;;;;;4.10;2.45;;;1.20;99.90;;;;;;5002225;28;20473;-67
2024/01/20 01:33:47;;;;;;;6.65;2.33;;;1.30;99.90;;;;;;5002686;28;20049;-68
2024/01/20 01:36:14;;;;;;;4.70;2.30;;;1.10;99.90;;;;;;5004585;28;20049;-69
2024/01/20 01:38:41;;;;;;;10.10;3.17;;;1.10;99.90;;;;;;5001109;28;20073;-68
2024/01/20 01:41:08;;;;;;;8.80;2.70;;;1.10;99.90;;;;;;4997495;28;20061;-68
2024/01/20 01:43:35;;;;;;;9.10;3.17;;;1.20;99.90;;;;;;5003547;28;20225;-68
2024/01/20 01:46:03;;;;;;;6.25;2.78;;;1.20;99.90;;;;;;5000982;28;20046;-67
2024/01/20 01:48:30;;;;;;;10.95;2.50;;;1.20;99.90;;;;;;4993177;28;20046;-67
2024/01/20 01:50:57;;;;;;;6.00;2.22;;;1.20;99.90;;;;;;5011902;28;20053;-67
2024/01/20 01:53:23;;;;;;;7.75;2.58;;;1.20;99.90;;;;;;5001235;28;20057;-68
2024/01/20 01:55:50;;;;;;;6.90;3.00;;;1.20;99.90;;;;;;5002005;28;20042;-68
2024/01/20 01:58:17;;;;;;;10.85;3.22;;;1.20;99.90;;;;;;4994153;28;20046;-68
2024/01/20 02:00:44;;;;;;;7.50;2.90;;;1.30;99.90;;;;;;5003548;28;20081;-68
2024/01/20 02:03:11;;;;;;;5.20;2.88;;;1.40;99.90;;;;;;4999488;28;21546;-68
2024/01/20 02:05:38;;;;;;;6.70;3.25;;;1.50;99.90;;;;;;4996742;28;20050;-68
2024/01/20 02:08:05;;;;;;;9.07;2.75;;;1.40;99.90;;;;;;5002614;28;20467;-68
2024/01/20 02:10:32;;;;;;;6.05;2.80;;;1.50;99.90;;;;;;5000461;28;20107;-68
2024/01/20 02:13:00;;;;;;;9.65;3.97;;;1.50;99.90;;;;;;5002104;28;20058;-67
2024/01/20 02:15:27;;;;;;;7.18;2.97;;;1.50;99.90;;;;;;4998489;28;20109;-67
2024/01/20 02:17:54;;;;;;;4.18;2.42;;;1.60;99.90;;;;;;5002148;28;20063;-67
2024/01/20 02:20:23;;;;;;;5.45;2.90;;;1.60;99.90;;;;;;5002047;28;20145;-67
2024/01/20 02:22:50;;;;;;;6.25;2.92;;;1.80;99.90;;;;;;4996613;28;20054;-66
2024/01/20 02:25:17;;;;;;;8.60;2.85;;;1.80;99.90;;;;;;5009468;28;20069;-67
2024/01/20 02:27:44;;;;;;;7.07;2.92;;;1.80;99.90;;;;;;5001158;28;20046;-70
2024/01/20 02:30:11;;;;;;;7.63;2.83;;;2.10;99.90;;;;;;5002890;28;20049;-67
2024/01/20 02:32:40;;;;;;;7.80;2.92;;;1.90;99.90;;;;;;5001866;28;20069;-67
2024/01/20 02:35:07;;;;;;;10.65;2.40;;;1.90;99.90;;;;;;5003125;28;20042;-66
2024/01/20 02:37:34;;;;;;;11.88;4.35;;;1.90;99.90;;;;;;5001154;28;20508;-67
2024/01/20 02:40:02;;;;;;;11.02;4.28;;;2.00;99.90;;;;;;4996279;28;20515;-67
2024/01/20 02:42:28;;;;;;;14.20;3.13;;;2.00;99.90;;;;;;4996795;28;20135;-67
2024/01/20 02:44:55;;;;;;;9.63;2.63;;;2.00;99.90;;;;;;5001537;28;20122;-68
2024/01/20 02:47:22;;;;;;;7.53;2.50;;;2.00;99.90;;;;;;4999589;28;20053;-67
2024/01/20 02:49:49;;;;;;;10.70;2.67;;;2.00;99.90;;;;;;5000632;28;20158;-67
2024/01/20 02:52:16;;;;;;;3.97;1.83;;;2.00;99.90;;;;;;4997198;28;20148;-67
2024/01/20 02:54:42;;;;;;;7.82;2.33;;;2.10;99.90;;;;;;5016230;28;20408;-67
2024/01/20 02:57:10;;;;;;;8.18;2.10;;;2.10;99.90;;;;;;4998731;28;20457;-67
2024/01/20 02:59:36;;;;;;;14.52;2.75;;;2.10;99.90;;;;;;5000142;28;20046;-67
2024/01/20 03:02:03;;;;;;;9.20;2.35;;;2.10;99.90;;;;;;4997863;28;20054;-67
2024/01/20 03:04:30;;;;;;;4.50;2.35;;;2.10;99.90;;;;;;5000009;28;20061;-67
2024/01/20 03:06:57;;;;;;;5.47;2.15;;;2.10;99.90;;;;;;4999197;28;20149;-68
2024/01/20 03:09:24;;;;;;;6.05;2.28;;;2.10;99.90;;;;;;4999076;28;20057;-67
2024/01/20 03:11:51;;;;;;;8.50;2.92;;;2.10;99.90;;;;;;4996011;28;20057;-67
2024/01/20 03:14:18;;;;;;;9.95;3.22;;;2.10;99.90;;;;;;4996817;28;20467;-68
2024/01/20 03:16:44;;;;;;;4.22;2.15;;;2.20;99.90;;;;;;5003281;28;20049;-68
2024/01/20 03:19:11;;;;;;;9.55;2.47;;;2.20;99.90;;;;;;4997653;28;20096;-68
2024/01/20 03:21:38;;;;;;;6.55;3.05;;;2.20;99.90;;;;;;5003438;28;20067;-68
2024/01/20 03:24:05;;;;;;;10.40;3.35;;;2.20;99.90;;;;;;4996200;28;20081;-68
2024/01/20 03:26:32;;;;;;;5.57;2.08;;;2.20;99.90;;;;;;4999137;28;20100;-68
2024/01/20 03:28:59;;;;;;;8.07;2.28;;;2.20;99.90;;;;;;5000926;28;20056;-68
2024/01/20 03:31:26;;;;;;;5.28;2.28;;;2.10;99.90;;;;;;5002991;28;20068;-69
2024/01/20 03:33:53;;;;;;;9.27;2.58;;;2.10;99.90;;;;;;4999340;28;20049;-67
2024/01/20 03:36:20;;;;;;;3.15;2.20;;;2.20;99.90;;;;;;5002318;28;20085;-66
2024/01/20 03:38:46;;;;;;;7.30;2.53;;;2.10;99.90;;;;;;4997863;28;20112;-67
2024/01/20 03:41:14;;;;;;;7.03;2.10;;;2.20;99.90;;;;;;4999613;28;20497;-67
2024/01/20 03:43:41;;;;;;;5.97;2.50;;;2.10;99.90;;;;;;4999861;28;20050;-67
2024/01/20 03:46:08;;;;;;;3.80;1.95;;;2.00;99.90;;;;;;5003402;28;20132;-67
2024/01/20 03:48:35;;;;;;;7.75;2.00;;;2.10;99.90;;;;;;4998828;28;20089;-66
2024/01/20 03:51:03;;;;;;;5.32;1.92;;;2.10;99.90;;;;;;5006922;28;20132;-67
2024/01/20 03:53:30;;;;;;;6.88;1.90;;;2.10;99.90;;;;;;5004336;28;20306;-66
2024/01/20 03:55:56;;;;;;;7.20;1.88;;;2.10;99.90;;;;;;4998525;28;20131;-67
2024/01/20 03:58:23;;;;;;;7.45;2.40;;;2.10;99.90;;;;;;5001751;28;20046;-67
2024/01/20 04:00:50;;;;;;;4.80;1.70;;;2.10;99.90;;;;;;5004170;28;20053;-67
2024/01/20 04:03:17;;;;;;;5.90;1.88;;;2.10;99.90;;;;;;4999381;28;20053;-66
2024/01/20 04:05:44;;;;;;;3.05;1.75;;;2.10;99.90;;;;;;4998206;28;20096;-66
2024/01/20 04:08:11;;;;;;;4.03;2.20;;;2.10;99.90;;;;;;5004378;28;20111;-66
2024/01/20 04:10:38;;;;;;;6.80;1.90;;;2.10;99.90;;;;;;5017908;28;20049;-66
2024/01/20 04:13:04;;;;;;;8.10;2.20;;;2.20;99.90;;;;;;5003377;28;20057;-66
2024/01/20 04:15:31;;;;;;;8.60;2.65;;;2.10;99.90;;;;;;5002193;28;20045;-67
2024/01/20 04:17:58;;;;;;;9.10;2.50;;;2.10;99.90;;;;;;5003358;28;20092;-66
2024/01/20 04:20:25;;;;;;;4.13;1.65;;;2.10;99.90;;;;;;5003064;28;20052;-66
2024/01/20 04:22:52;;;;;;;8.60;2.47;;;2.10;99.90;;;;;;5004406;28;20050;-67
2024/01/20 04:25:19;;;;;;;3.65;1.95;;;2.10;99.90;;;;;;5000628;28;20046;-68
2024/01/20 04:27:45;;;;;;;9.57;2.08;;;2.10;99.90;;;;;;5000326;28;20049;-66
2024/01/20 04:30:13;;;;;;;5.97;3.25;;;2.00;99.90;;;;;;5003403;28;20133;-66
2024/01/20 04:32:39;;;;;;;8.68;2.28;;;2.00;99.90;;;;;;5000604;28;20140;-66
2024/01/20 04:35:07;;;;;;;4.22;2.42;;;2.00;99.90;;;;;;5002439;28;20517;-67
2024/01/20 04:37:34;;;;;;;3.22;1.77;;;2.00;99.90;;;;;;4997842;28;20046;-66
2024/01/20 04:40:01;;;;;;;10.05;1.60;;;2.00;99.90;;;;;;5008882;28;20073;-66
2024/01/20 04:42:28;;;;;;;3.63;1.80;;;2.00;99.90;;;;;;4996065;28;20050;-66
2024/01/20 04:44:55;;;;;;;3.72;1.75;;;2.00;99.90;;;;;;4999925;28;20513;-66
2024/01/20 04:47:22;;;;;;;7.65;2.35;;;2.00;99.90;;;;;;4999884;28;20073;-67
2024/01/20 04:49:51;;;;;;;3.60;1.83;;;2.20;99.90;;;;;;4994311;28;20046;-67
2024/01/20 04:52:19;;;;;;;6.53;1.95;;;2.10;99.90;;;;;;5001677;28;20412;-67
2024/01/20 04:54:46;;;;;;;7.20;2.30;;;2.30;99.90;;;;;;5001194;28;20077;-67
2024/01/20 04:57:13;;;;;;;6.03;2.90;;;2.30;99.90;;;;;;5002704;28;20131;-66
2024/01/20 04:59:40;;;;;;;8.88;2.63;;;2.30;99.90;;;;;;5008517;28;20068;-67
2024/01/20 05:02:07;;;;;;;6.07;2.38;;;2.30;99.90;;;;;;5001418;28;20604;-67
2024/01/20 05:04:34;;;;;;;7.35;1.80;;;2.30;99.90;;;;;;5005397;28;20092;-68
2024/01/20 05:07:00;;;;;;;8.65;2.58;;;2.30;99.90;;;;;;4996690;28;20063;-67
2024/01/20 05:09:28;;;;;;;7.38;1.90;;;2.50;99.90;;;;;;5003318;28;20554;-67
2024/01/20 05:11:55;;;;;;;9.55;2.40;;;2.40;99.90;;;;;;5000864;28;20046;-68
2024/01/20 05:14:22;;;;;;;5.43;2.05;;;2.50;99.90;;;;;;5003895;28;20136;-68
2024/01/20 05:16:49;;;;;;;3.85;1.50;;;2.40;99.90;;;;;;5003829;28;20046;-65
2024/01/20 05:19:16;;;;;;;8.48;1.90;;;2.50;99.90;;;;;;5005053;28;20192;-67
2024/01/20 05:21:44;;;;;;;7.13;2.17;;;2.50;99.90;;;;;;5001500;28;20050;-67
2024/01/20 05:24:10;;;;;;;7.55;1.55;;;2.50;99.90;;;;;;4999807;28;20462;-67
2024/01/20 05:26:38;;;;;;;7.82;1.92;;;2.60;99.90;;;;;;5001529;28;20069;-67
2024/01/20 05:29:05;;;;;;;3.92;2.35;;;2.60;99.90;;;;;;5002214;28;20065;-67
2024/01/20 05:31:32;;;;;;;9.90;2.28;;;2.80;99.90;;;;;;5001209;28;20112;-67
2024/01/20 05:33:59;;;;;;;15.82;2.40;;;2.70;99.90;;;;;;5000394;28;20449;-67
2024/01/20 05:36:27;;;;;;;5.10;2.10;;;2.70;99.90;;;;;;5002232;28;20041;-67
2024/01/20 05:38:54;;;;;;;4.38;2.08;;;2.70;99.90;;;;;;4996810;28;20053;-67
2024/01/20 05:41:20;;;;;;;5.60;1.83;;;2.80;99.90;;;;;;4999854;28;20043;-66
2024/01/20 05:43:50;;;;;;;4.57;2.17;;;2.80;99.90;;;;;;5001122;28;20056;-67
2024/01/20 05:46:19;;;;;;;8.90;2.47;;;2.80;99.90;;;;;;4998833;28;20046;-67
2024/01/20 05:48:46;;;;;;;7.22;3.10;;;2.90;99.90;;;;;;4996738;28;20050;-66
2024/01/20 05:51:13;;;;;;;10.40;2.38;;;2.90;99.90;;;;;;5004023;28;20041;-67
2024/01/20 05:53:40;;;;;;;8.05;2.70;;;3.00;99.90;;;;;;5001529;28;20528;-66
2024/01/20 05:56:07;;;;;;;13.65;2.85;;;3.10;99.90;;;;;;5002453;28;20046;-67
2024/01/20 05:58:34;;;;;;;5.25;2.08;;;3.00;99.90;;;;;;5015209;28;20046;-66
2024/01/20 06:01:00;;;;;;;7.93;2.55;;;3.10;99.90;;;;;;5003300;28;20556;-66
2024/01/20 06:03:27;;;;;;;3.58;2.42;;;3.00;99.90;;;;;;4996873;28;20053;-67
2024/01/20 06:05:54;;;;;;;9.02;3.00;;;3.00;99.90;;;;;;5004599;28;20074;-67
2024/01/20 06:08:21;;;;;;;9.75;3.78;;;3.00;99.90;;;;;;4991982;28;20042;-67
2024/01/20 06:10:48;;;;;;;9.68;2.75;;;3.00;99.90;;;;;;4992077;28;20054;-67
2024/01/20 06:13:15;;;;;;;7.18;2.80;;;3.00;99.90;;;;;;5000312;28;20050;-67
2024/01/20 06:15:42;;;;;;;8.68;2.33;;;3.00;99.90;;;;;;5000279;28;20054;-67
2024/01/20 06:18:09;;;;;;;8.45;2.47;;;3.00;99.90;;;;;;4999195;28;20160;-66
2024/01/20 06:20:36;;;;;;;13.38;2.35;;;3.00;99.90;;;;;;5000540;28;20187;-66
2024/01/20 06:23:03;;;;;;;4.25;2.67;;;3.10;99.90;;;;;;5000599;28;20061;-65
2024/01/20 06:25:30;;;;;;;5.90;2.28;;;3.10;99.90;;;;;;5002983;28;20077;-66
2024/01/20 06:27:56;;;;;;;7.80;2.00;;;3.00;99.90;;;;;;5002893;28;20058;-66
2024/01/20 06:30:23;;;;;;;9.63;2.40;;;3.00;99.90;;;;;;5003160;28;20049;-67
2024/01/20 06:32:50;;;;;;;5.05;2.20;;;3.10;99.90;;;;;;4999347;28;20081;-66
2024/01/20 06:35:17;;;;;;;7.85;2.53;;;3.10;99.90;;;;;;4998740;28;20077;-68
2024/01/20 06:37:44;;;;;;;8.63;2.50;;;3.10;99.90;;;;;;5002218;28;20155;-68
2024/01/20 06:40:11;;;;;;;4.97;2.03;;;3.10;99.90;;;;;;5016011;28;20120;-66
2024/01/20 06:42:38;;;;;;;3.55;2.05;;;3.10;99.90;;;;;;5002648;28;20064;-66
2024/01/20 06:45:05;;;;;;;5.78;1.98;;;3.20;99.90;;;;;;4996310;28;20069;-67
2024/01/20 06:47:32;;;;;;;4.95;2.05;;;3.20;99.90;;;;;;5001995;28;20042;-70
2024/01/20 06:50:00;;;;;;;7.13;2.25;;;3.20;99.90;;;;;;5000490;28;20354;-69
2024/01/20 06:52:29;;;;;;;7.22;1.92;;;3.20;99.90;;;;;;5002673;28;20054;-65
2024/01/20 06:54:56;;;;;;;6.32;1.98;;;3.20;99.90;;;;;;4998499;28;20557;-67
2024/01/20 06:57:23;;;;;;;3.20;2.00;;;3.30;99.90;;;;;;4998881;28;20118;-67
2024/01/20 06:59:50;;;;;;;5.05;2.15;;;3.30;99.90;;;;;;4994813;28;20420;-68
2024/01/20 07:02:16;;;;;;;5.15;2.28;;;3.30;99.90;;;;;;4998077;28;20041;-67
2024/01/20 07:04:43;;;;;;;10.45;2.05;;;3.30;99.90;;;;;;5000962;28;20038;-67
2024/01/20 07:07:11;;;;;;;3.75;2.25;;;3.30;99.90;;;;;;5003137;28;20099;-68
2024/01/20 07:09:41;;;;;;;5.93;2.17;;;3.30;99.90;;;;;;5000541;28;20042;-67
2024/01/20 07:12:08;;;;;;;7.07;1.92;;;3.30;99.90;;;;;;4994747;28;20136;-69
2024/01/20 07:14:35;;;;;;;7.05;2.03;;;3.30;99.90;;;;;;4997464;28;20069;-66
2024/01/20 07:17:05;;;;;;;4.72;1.75;;;3.20;99.90;;;;;;4996293;28;20095;-66
2024/01/20 07:19:31;;;;;;;7.82;2.47;;;3.30;99.90;;;;;;4999058;28;20505;-66
2024/01/20 07:21:59;;;;;;;8.38;3.33;;;3.30;99.90;;;;;;5001194;28;20050;-66
2024/01/20 07:24:27;;;;;;;7.18;1.95;;;3.20;99.90;;;;;;5004031;28;20457;-66
2024/01/20 07:26:55;;;;;;;7.22;1.98;;;3.20;99.90;;;;;;5001753;28;20423;-67
2024/01/20 07:29:22;;;;;;;6.38;4.07;;;3.30;99.90;;;;;;5004364;28;20052;-66
2024/01/20 07:31:50;;;;;;;16.42;4.18;;;3.30;99.90;;;;;;5000996;28;20045;-66
2024/01/20 07:34:17;;;;;;;3.65;1.80;;;3.30;99.90;;;;;;5003799;28;20132;-67
2024/01/20 07:36:44;;;;;;;7.70;1.98;;;3.20;99.90;;;;;;4999221;28;20109;-67
2024/01/20 07:39:11;;;;;;;9.70;3.10;;;3.20;99.90;;;;;;5004714;28;20463;-66
2024/01/20 07:41:38;;;;;;;8.52;2.22;;;3.30;99.90;;;;;;5003892;28;20050;-67
2024/01/20 07:44:05;;;;;;;6.90;2.38;;;3.30;99.90;;;;;;5000951;28;20049;-67
2024/01/20 07:46:31;;;;;;;7.00;2.10;;;3.30;99.90;;;;;;5000400;28;20037;-66
2024/01/20 07:48:58;;;;;;;5.20;1.50;;;3.20;99.90;;;;;;5003909;28;20464;-67
2024/01/20 07:51:25;;;;;;;7.63;3.17;;;3.20;99.90;;;;;;5001116;28;20081;-68
2024/01/20 07:53:52;;;;;;;14.40;2.80;;;3.20;99.90;;;;;;4654454;28;9999818;-67
2024/01/20 07:56:19;;;;;;;11.02;2.65;;;3.20;99.90;;;;;;5017818;28;20138;-68
2024/01/20 07:58:46;;;;;;;6.45;1.88;;;3.20;99.90;;;;;;4999868;28;20049;-68
2024/01/20 08:01:13;;;;;;;13.15;2.40;;;3.30;99.90;;;;;;5000178;28;20134;-68
2024/01/20 08:03:39;;;;;;;11.20;2.78;;;3.20;99.90;;;;;;5000483;28;20104;-69
2024/01/20 08:06:07;;;;;;;10.32;3.70;;;3.30;99.90;;;;;;5000986;28;20042;-68
2024/01/20 08:08:34;;;;;;;9.82;2.72;;;3.40;99.90;;;;;;4997403;28;20050;-67
2024/01/20 08:11:00;;;;;;;12.77;2.30;;;3.40;99.90;;;;;;4981188;28;20326;-69
2024/01/20 08:13:27;;;;;;;17.23;5.75;;;3.40;99.90;;;;;;5002773;28;20131;-69
2024/01/20 08:15:54;;;;;;;9.25;3.42;;;3.40;99.90;;;;;;5002452;28;20099;-69
2024/01/20 08:18:21;;;;;;;11.25;3.42;;;3.40;99.90;;;;;;4997525;28;20069;-69
2024/01/20 08:20:48;;;;;;;6.80;2.17;;;3.50;99.90;;;;;;5006547;28;20140;-70
2024/01/20 08:23:15;;;;;;;10.18;3.75;;;3.40;99.90;;;;;;5001998;28;20103;-68
2024/01/20 08:25:42;;;;;;;14.80;2.97;;;3.50;99.90;;;;;;4997187;28;20053;-69
2024/01/20 08:28:08;;;;;;;9.20;2.67;;;3.50;99.90;;;;;;5013763;28;20058;-69
2024/01/20 08:30:35;;;;;;;7.80;2.67;;;3.50;99.90;;;;;;4999849;28;20045;-67
2024/01/20 08:33:02;;;;;;;14.73;3.30;;;3.50;99.90;;;;;;4996092;28;20109;-69
2024/01/20 08:35:32;;;;;;;6.53;3.13;;;3.50;99.90;;;;;;5002898;28;20613;-68
2024/01/20 08:37:59;;;;;;;5.88;2.03;;;3.60;99.90;;;;;;4997993;28;20077;-68
2024/01/20 08:40:26;;;;;;;4.63;2.88;;;3.60;99.90;;;;;;5000807;28;20054;-66
2024/01/20 08:42:52;;;;;;;8.05;2.85;;;3.60;99.90;;;;;;5002339;28;20158;-66
2024/01/20 08:45:19;;;;;;;6.30;2.75;;;3.60;99.90;;;;;;5003795;28;20092;-66
2024/01/20 08:47:46;;;;;;;8.80;2.67;;;3.60;99.90;;;;;;4991974;28;20405;-66
2024/01/20 08:50:13;;;;;;;9.63;2.28;;;3.70;99.90;;;;;;5004023;28;20066;-65
2024/01/20 08:52:40;;;;;;;5.75;2.58;;;3.70;99.90;;;;;;5000395;28;20089;-68
2024/01/20 08:55:07;;;;;;;10.13;2.60;;;3.70;99.90;;;;;;4992954;28;20058;-67
2024/01/20 08:57:34;;;;;;;8.65;2.78;;;3.80;99.90;;;;;;4991909;28;20571;-66
2024/01/20 09:00:01;;;;;;;10.60;2.22;;;3.80;99.90;;;;;;5001572;28;20060;-66
2024/01/20 09:02:28;;;;;;;10.63;2.88;;;3.90;99.90;;;;;;4999609;28;20053;-65
2024/01/20 09:04:58;;;;;;;13.38;4.30;;;3.90;99.90;;;;;;5000096;28;20054;-67
2024/01/20 09:07:25;;;;;;;11.00;2.45;;;3.90;99.90;;;;;;5000511;28;20077;-66
2024/01/20 09:09:52;;;;;;;13.18;2.40;;;3.90;99.90;;;;;;5002526;28;20128;-66
2024/01/20 09:12:19;;;;;;;4.68;1.95;;;4.00;99.90;;;;;;5003977;28;20053;-66
2024/01/20 09:14:46;;;;;;;10.70;2.88;;;4.00;99.90;;;;;;4993660;28;20076;-66
2024/01/20 09:17:13;;;;;;;9.93;2.70;;;4.00;99.90;;;;;;5017665;28;20037;-66
2024/01/20 09:19:43;;;;;;;13.48;2.78;;;4.10;99.90;;;;;;4997354;28;20050;-66
2024/01/20 09:22:10;;;;;;;7.20;2.22;;;4.10;99.90;;;;;;5015971;28;20049;-66
2024/01/20 09:24:37;;;;;;;8.23;3.20;;;4.10;99.90;;;;;;4999879;28;20138;-66
2024/01/20 09:27:05;;;;;;;19.95;3.00;;;4.20;99.90;;;;;;5002281;28;20042;-67
2024/01/20 09:29:32;;;;;;;7.18;3.20;;;4.20;99.90;;;;;;5015153;28;20046;-66
2024/01/20 09:31:59;;;;;;;11.70;3.20;;;4.20;99.90;;;;;;5002097;28;20497;-66
2024/01/20 09:34:26;;;;;;;15.13;3.17;;;4.20;99.90;;;;;;4998887;28;20045;-66
2024/01/20 09:36:52;;;;;;;5.47;2.50;;;4.20;99.90;;;;;;5003995;28;20107;-67
2024/01/20 09:39:20;;;;;;;14.30;3.28;;;4.20;99.90;;;;;;5000446;28;20081;-68
2024/01/20 09:41:47;;;;;;;23.02;3.83;;;4.30;99.90;;;;;;5001078;28;20041;-67
2024/01/20 09:44:16;;;;;;;8.80;2.75;;;4.30;99.90;;;;;;4993530;28;20046;-67
2024/01/20 09:46:43;;;;;;;12.73;2.60;;;4.30;99.90;;;;;;5002462;28;20045;-67
2024/01/20 09:49:10;;;;;;;7.38;2.38;;;4.30;99.90;;;;;;4998701;28;20042;-67
2024/01/20 09:51:50;;;;;;;5.80;2.13;;;4.40;99.90;;;;;;5000036;28;20042;-66
2024/01/20 09:54:18;;;;;;;6.35;2.90;;;4.40;99.90;;;;;;4993627;28;20062;-66
2024/01/20 09:56:45;;;;;;;9.85;2.05;;;4.60;99.90;;;;;;5011907;28;20096;-67
2024/01/20 09:59:12;;;;;;;9.55;2.28;;;4.50;99.90;;;;;;5001815;28;20462;-67
2024/01/20 10:01:38;;;;;;;5.25;2.08;;;4.50;99.90;;;;;;5004426;28;20120;-66
2024/01/20 10:04:05;;;;;;;9.55;2.42;;;4.50;99.90;;;;;;4995712;28;20623;-67
2024/01/20 10:06:32;;;;;;;5.40;2.10;;;4.60;99.90;;;;;;4997398;28;20485;-67
2024/01/20 10:08:59;;;;;;;10.52;2.67;;;4.60;99.90;;;;;;5014374;28;20050;-67
2024/01/20 10:11:26;;;;;;;7.90;1.58;;;4.60;99.90;;;;;;4998251;28;20638;-67
2024/01/20 10:13:53;;;;;;;7.78;2.70;;;4.60;99.90;;;;;;5000227;28;20056;-68
2024/01/20 10:16:20;;;;;;;10.35;2.35;;;4.60;99.90;;;;;;5015332;28;20119;-67
2024/01/20 10:18:48;;;;;;;8.60;2.35;;;4.70;99.90;;;;;;4998111;28;20129;-67
2024/01/20 10:21:15;;;;;;;9.07;2.78;;;4.70;99.90;;;;;;4998884;28;20049;-67
2024/01/20 10:23:42;;;;;;;9.90;2.30;;;4.70;99.90;;;;;;4993698;28;20178;-67
2024/01/20 10:26:09;;;;;;;13.88;2.10;;;4.70;99.90;;;;;;5001529;28;20076;-67
2024/01/20 10:28:36;;;;;;;10.40;1.92;;;4.80;99.90;;;;;;5000621;28;20046;-67
2024/01/20 10:31:08;;;;;;;6.78;2.00;;;4.80;99.90;;;;;;4996426;28;20460;-67
2024/01/20 10:33:35;;;;;;;10.52;2.45;;;4.80;99.90;;;;;;5018977;28;20053;-66
2024/01/20 10:36:03;;;;;;;13.63;2.38;;;4.80;99.90;;;;;;4991971;28;20125;-67
2024/01/20 10:38:31;;;;;;;4.07;2.35;;;4.90;99.90;;;;;;4998458;28;20498;-66
2024/01/20 10:40:58;;;;;;;13.52;2.25;;;4.90;99.90;;;;;;5000100;28;20350;-66
2024/01/20 10:43:27;;;;;;;11.38;2.40;;;5.00;99.90;;;;;;5014563;28;20078;-66
2024/01/20 10:46:29;;;;;;;10.38;2.85;;;5.00;99.90;;;;;;4999174;28;20527;-67
2024/01/20 10:48:59;;;;;;;9.98;2.63;;;5.00;99.90;;;;;;4998575;28;20053;-67
2024/01/20 10:51:27;;;;;;;10.40;2.30;;;5.00;99.90;;;;;;5017654;28;20073;-66
2024/01/20 10:53:56;;;;;;;7.32;1.98;;;5.10;99.90;;;;;;5000211;28;20057;-66
2024/01/20 10:56:26;;;;;;;10.10;2.42;;;5.10;99.90;;;;;;5001434;28;20049;-67
2024/01/20 10:59:14;;;;;;;8.13;2.58;;;5.20;99.90;;;;;;4993259;28;20417;-67
2024/01/20 11:01:43;;;;;;;13.65;2.20;;;5.20;99.90;;;;;;5001086;28;20046;-66
2024/01/20 11:04:17;;;;;;;6.45;1.98;;;5.30;99.90;;;;;;5011153;28;20058;-66
2024/01/20 11:06:44;;;;;;;12.13;2.22;;;5.30;99.90;;;;;;5012297;28;20049;-67
2024/01/20 11:09:22;;;;;;;9.57;2.30;;;5.40;99.90;;;;;;5013850;28;20048;-67
2024/01/20 11:12:09;;;;;;;3.92;1.45;;;5.40;99.90;;;;;;5001058;28;20129;-67
2024/01/20 11:14:36;;;;;;;5.60;1.50;;;5.40;99.90;;;;;;4996615;28;20141;-67
2024/01/20 11:17:15;;;;;;;7.93;2.47;;;5.50;99.90;;;;;;4998571;28;20081;-67
2024/01/20 11:19:41;;;;;;;5.82;1.60;;;5.50;99.90;;;;;;4994206;28;20448;-67
2024/01/20 11:22:47;;;;;;;8.10;2.88;;;5.50;99.90;;;;;;5015384;28;20112;-67
2024/01/20 11:25:14;;;;;;;4.97;2.05;;;5.50;99.90;;;;;;4993465;28;20072;-67
2024/01/20 11:27:54;;;;;;;6.78;2.58;;;5.50;99.90;;;;;;4997743;28;20500;-68
2024/01/20 11:30:29;;;;;;;6.25;2.75;;;5.60;99.90;;;;;;4996610;28;20038;-66
2024/01/20 11:32:56;;;;;;;6.32;2.47;;;5.70;99.90;;;;;;4997172;28;20054;-68
2024/01/20 11:35:24;;;;;;;9.70;2.03;;;5.70;99.90;;;;;;4993610;28;20413;-67
2024/01/20 11:37:53;;;;;;;16.17;2.63;;;5.80;99.90;;;;;;4992761;28;20057;-68
2024/01/20 11:40:21;;;;;;;6.85;1.77;;;5.80;99.90;;;;;;5013418;28;20096;-67
2024/01/20 11:42:48;;;;;;;5.00;1.30;;;5.80;99.90;;;;;;4995297;28;20042;-67
2024/01/20 11:45:16;;;;;;;9.77;1.77;;;5.90;99.90;;;;;;5001272;28;20054;-67
2024/01/20 11:47:43;;;;;;;11.63;3.33;;;5.90;99.90;;;;;;4994750;28;20061;-66
2024/01/20 11:50:10;;;;;;;8.95;2.03;;;5.90;99.90;;;;;;4993748;28;20069;-67
2024/01/20 11:52:37;;;;;;;6.57;1.83;;;5.90;99.90;;;;;;5006141;28;20141;-67
2024/01/20 11:55:04;;;;;;;6.70;1.75;;;6.10;99.90;;;;;;4999864;28;20092;-67
2024/01/20 11:57:31;;;;;;;7.18;2.35;;;6.10;99.90;;;;;;4998772;28;20412;-67
2024/01/20 11:59:58;;;;;;;13.70;3.03;;;6.10;99.90;;;;;;4997293;28;20127;-67
2024/01/20 12:02:29;;;;;;;10.48;1.83;;;6.10;99.90;;;;;;5016342;28;20049;-68
2024/01/20 12:04:55;;;;;;;6.97;1.73;;;6.10;99.90;;;;;;4996859;28;20054;-67
2024/01/20 12:07:33;;;;;;;9.20;2.25;;;6.10;99.90;;;;;;5000376;28;20046;-69
2024/01/20 12:10:01;;;;;;;24.70;5.40;;;6.00;99.90;;;;;;5009615;28;20046;-68
2024/01/20 12:12:28;;;;;;;8.88;3.00;;;6.00;99.90;;;;;;5000809;28;20068;-67
2024/01/20 12:14:55;;;;;;;6.50;2.00;;;6.10;99.90;;;;;;5003495;28;20525;-68
2024/01/20 12:17:22;;;;;;;11.27;1.95;;;6.00;99.90;;;;;;4999994;28;20084;-70
2024/01/20 12:19:49;;;;;;;10.38;1.80;;;6.00;99.90;;;;;;5003451;28;20102;-68
2024/01/20 12:22:16;;;;;;;6.70;2.03;;;6.00;99.90;;;;;;5005145;28;20045;-68
2024/01/20 12:24:49;;;;;;;11.02;2.10;;;6.00;99.90;;;;;;4998402;28;20434;-68
2024/01/20 12:27:16;;;;;;;12.98;1.90;;;5.90;99.90;;;;;;5000181;28;20076;-68
2024/01/20 12:29:43;;;;;;;10.52;2.03;;;5.90;99.90;;;;;;5001275;28;20152;-67
2024/01/20 12:32:10;;;;;;;8.10;1.98;;;5.90;99.90;;;;;;5004183;28;20362;-69
2024/01/20 12:34:37;;;;;;;4.80;1.80;;;5.80;99.90;;;;;;4999775;28;20060;-68
2024/01/20 12:37:04;;;;;;;10.13;1.83;;;5.90;99.90;;;;;;4650030;28;9999879;-68
2024/01/20 12:39:35;;;;;;;9.07;2.03;;;5.90;99.90;;;;;;4994172;28;20049;-67
2024/01/20 12:42:02;;;;;;;8.30;1.45;;;6.00;99.90;;;;;;4996827;28;20062;-68
2024/01/20 12:44:29;;;;;;;6.43;1.92;;;6.00;99.90;;;;;;5016030;28;20050;-68
2024/01/20 12:46:56;;;;;;;6.20;2.00;;;6.00;99.90;;;;;;5000626;28;20058;-68
2024/01/20 12:49:23;;;;;;;10.07;2.05;;;6.10;99.90;;;;;;4999863;28;20074;-67
2024/01/20 12:51:50;;;;;;;9.63;2.53;;;6.10;99.90;;;;;;4991920;28;20188;-68
2024/01/20 12:54:18;;;;;;;6.03;1.55;;;6.10;99.90;;;;;;4998603;28;20107;-68
2024/01/20 12:56:45;;;;;;;9.02;2.20;;;6.10;99.90;;;;;;4996651;28;20065;-68
2024/01/20 12:59:12;;;;;;;7.00;1.67;;;6.20;99.90;;;;;;5000242;28;20053;-68